Alpine Haven, Vermont
Current Conditions -  °F | °C
As of 2:55 AM on Thursday 23 Oct 2014 (Local Time) from KEFK Reporting Station
Overcast Overcast  
Wind Chill:   Ceiling: 2300
Heat Index:   Visibility: 10mi
Dew Point:   Wind: 16mph
Humidity: 76%   Direction: 10°N
Pressure: 30.05"   Gusts: NA
Location:  44.8557°N, 72.6016°W
Report Text: KEFK 230655Z AUTO 01014KT 10SM OVC023 07/03 A3005 RMK AO2 T00650025
Loading
Personal Weather Stations






























Interactive Weather Map
Tropical Storm Tracking
New forecast layout! Learn more

10-Day Weather Forecast

Advertisements
Track Severe Weather on mobile